sensor_id;sensor_type;location;lat;lon;timestamp;temperature;humidity
4002;DHT22;2015;48.670;9.060;2023-02-26T00:00:34;0.30;99.90
4002;DHT22;2015;48.670;9.060;2023-02-26T00:03:06;0.30;99.90
4002;DHT22;2015;48.670;9.060;2023-02-26T00:05:38;0.30;99.90
4002;DHT22;2015;48.670;9.060;2023-02-26T00:08:09;0.30;99.90
4002;DHT22;2015;48.670;9.060;2023-02-26T00:10:41;0.30;99.90
4002;DHT22;2015;48.670;9.060;2023-02-26T00:13:14;0.20;99.90
4002;DHT22;2015;48.670;9.060;2023-02-26T00:15:47;0.20;99.90
4002;DHT22;2015;48.670;9.060;2023-02-26T00:18:20;0.10;99.90
4002;DHT22;2015;48.670;9.060;2023-02-26T00:20:53;0.10;99.90
4002;DHT22;2015;48.670;9.060;2023-02-26T00:23:25;0.10;99.90
4002;DHT22;2015;48.670;9.060;2023-02-26T00:25:57;0.00;99.90
4002;DHT22;2015;48.670;9.060;2023-02-26T00:28:29;0.00;99.90
4002;DHT22;2015;48.670;9.060;2023-02-26T00:31:01;0.00;99.90
4002;DHT22;2015;48.670;9.060;2023-02-26T00:33:33;-0.10;99.90
4002;DHT22;2015;48.670;9.060;2023-02-26T00:36:18;-0.10;99.90
4002;DHT22;2015;48.670;9.060;2023-02-26T00:39:19;-0.10;99.90
4002;DHT22;2015;48.670;9.060;2023-02-26T00:41:53;-0.20;99.90
4002;DHT22;2015;48.670;9.060;2023-02-26T00:44:25;-0.20;99.90
4002;DHT22;2015;48.670;9.060;2023-02-26T00:52:38;-0.20;99.90
4002;DHT22;2015;48.670;9.060;2023-02-26T00:55:12;-0.20;99.90
4002;DHT22;2015;48.670;9.060;2023-02-26T00:57:44;-0.30;99.90
4002;DHT22;2015;48.670;9.060;2023-02-26T01:00:16;-0.30;99.90
4002;DHT22;2015;48.670;9.060;2023-02-26T01:02:49;-0.30;99.90
4002;DHT22;2015;48.670;9.060;2023-02-26T01:05:21;-0.30;99.90
4002;DHT22;2015;48.670;9.060;2023-02-26T01:10:44;-0.30;99.90
4002;DHT22;2015;48.670;9.060;2023-02-26T01:13:16;-0.40;99.90
4002;DHT22;2015;48.670;9.060;2023-02-26T01:15:52;-0.40;99.90
4002;DHT22;2015;48.670;9.060;2023-02-26T01:18:39;-0.40;99.90
4002;DHT22;2015;48.670;9.060;2023-02-26T01:21:17;-0.40;99.90
4002;DHT22;2015;48.670;9.060;2023-02-26T01:23:51;-0.40;99.90
4002;DHT22;2015;48.670;9.060;2023-02-26T01:26:27;-0.40;99.90
4002;DHT22;2015;48.670;9.060;2023-02-26T01:29:00;-0.40;99.90
4002;DHT22;2015;48.670;9.060;2023-02-26T01:47:15;-0.50;99.90
4002;DHT22;2015;48.670;9.060;2023-02-26T01:49:48;-0.60;99.90
4002;DHT22;2015;48.670;9.060;2023-02-26T01:53:13;-0.60;99.90
4002;DHT22;2015;48.670;9.060;2023-02-26T01:55:49;-0.70;99.90
4002;DHT22;2015;48.670;9.060;2023-02-26T01:58:23;-0.70;99.90
4002;DHT22;2015;48.670;9.060;2023-02-26T02:00:56;-0.70;99.90
4002;DHT22;2015;48.670;9.060;2023-02-26T02:03:30;-0.80;99.90
4002;DHT22;2015;48.670;9.060;2023-02-26T02:06:08;-0.80;99.90
4002;DHT22;2015;48.670;9.060;2023-02-26T02:08:42;-0.80;99.90
4002;DHT22;2015;48.670;9.060;2023-02-26T02:11:14;-0.80;99.90
4002;DHT22;2015;48.670;9.060;2023-02-26T02:16:52;-0.80;99.90
4002;DHT22;2015;48.670;9.060;2023-02-26T02:33:54;-0.70;99.90
4002;DHT22;2015;48.670;9.060;2023-02-26T02:36:39;-0.80;99.90
4002;DHT22;2015;48.670;9.060;2023-02-26T02:39:21;-0.80;99.90
4002;DHT22;2015;48.670;9.060;2023-02-26T02:42:07;-0.80;99.90
4002;DHT22;2015;48.670;9.060;2023-02-26T02:44:46;-1.00;99.90
4002;DHT22;2015;48.670;9.060;2023-02-26T02:47:19;-1.00;99.90
4002;DHT22;2015;48.670;9.060;2023-02-26T02:50:08;-1.00;99.90
4002;DHT22;2015;48.670;9.060;2023-02-26T02:52:57;-1.10;99.90
4002;DHT22;2015;48.670;9.060;2023-02-26T02:55:35;-1.10;99.90
4002;DHT22;2015;48.670;9.060;2023-02-26T02:58:13;-1.10;99.90
4002;DHT22;2015;48.670;9.060;2023-02-26T03:00:48;-1.10;99.90
4002;DHT22;2015;48.670;9.060;2023-02-26T03:03:33;-1.10;99.90
4002;DHT22;2015;48.670;9.060;2023-02-26T03:06:06;-1.10;99.90
4002;DHT22;2015;48.670;9.060;2023-02-26T03:08:40;-1.10;99.90
4002;DHT22;2015;48.670;9.060;2023-02-26T03:11:12;-1.20;99.90
4002;DHT22;2015;48.670;9.060;2023-02-26T03:13:45;-1.20;99.90
4002;DHT22;2015;48.670;9.060;2023-02-26T03:22:33;-1.30;99.90
4002;DHT22;2015;48.670;9.060;2023-02-26T03:28:04;-1.40;99.90
4002;DHT22;2015;48.670;9.060;2023-02-26T03:30:46;-1.40;99.90
4002;DHT22;2015;48.670;9.060;2023-02-26T03:39:19;-1.40;99.90
4002;DHT22;2015;48.670;9.060;2023-02-26T03:44:52;-1.50;99.90
4002;DHT22;2015;48.670;9.060;2023-02-26T03:47:25;-1.50;99.90
4002;DHT22;2015;48.670;9.060;2023-02-26T03:50:07;-1.50;99.90
4002;DHT22;2015;48.670;9.060;2023-02-26T03:52:42;-1.50;99.90
4002;DHT22;2015;48.670;9.060;2023-02-26T03:55:23;-1.50;99.90
4002;DHT22;2015;48.670;9.060;2023-02-26T03:57:57;-1.50;99.90
4002;DHT22;2015;48.670;9.060;2023-02-26T04:00:30;-1.50;99.90
4002;DHT22;2015;48.670;9.060;2023-02-26T04:03:09;-1.50;99.90
4002;DHT22;2015;48.670;9.060;2023-02-26T04:05:46;-1.50;99.90
4002;DHT22;2015;48.670;9.060;2023-02-26T04:08:22;-1.50;99.90
4002;DHT22;2015;48.670;9.060;2023-02-26T04:10:57;-1.50;99.90
4002;DHT22;2015;48.670;9.060;2023-02-26T04:13:30;-1.50;99.90
4002;DHT22;2015;48.670;9.060;2023-02-26T04:16:01;-1.60;99.90
4002;DHT22;2015;48.670;9.060;2023-02-26T04:18:33;-1.60;99.90
4002;DHT22;2015;48.670;9.060;2023-02-26T04:21:05;-1.60;99.90
4002;DHT22;2015;48.670;9.060;2023-02-26T04:23:37;-1.60;99.90
4002;DHT22;2015;48.670;9.060;2023-02-26T04:26:09;-1.60;99.90
4002;DHT22;2015;48.670;9.060;2023-02-26T04:28:41;-1.70;99.90
4002;DHT22;2015;48.670;9.060;2023-02-26T04:31:13;-1.80;99.90
4002;DHT22;2015;48.670;9.060;2023-02-26T04:33:46;-1.80;99.90
4002;DHT22;2015;48.670;9.060;2023-02-26T04:36:17;-1.80;99.90
4002;DHT22;2015;48.670;9.060;2023-02-26T04:38:49;-1.80;99.90
4002;DHT22;2015;48.670;9.060;2023-02-26T04:41:21;-1.80;99.90
4002;DHT22;2015;48.670;9.060;2023-02-26T04:43:53;-1.90;99.90
4002;DHT22;2015;48.670;9.060;2023-02-26T04:46:25;-1.90;99.90
4002;DHT22;2015;48.670;9.060;2023-02-26T04:48:57;-1.90;99.90
4002;DHT22;2015;48.670;9.060;2023-02-26T04:51:29;-1.90;99.90
4002;DHT22;2015;48.670;9.060;2023-02-26T04:54:01;-1.80;99.90
4002;DHT22;2015;48.670;9.060;2023-02-26T04:56:32;-1.90;99.90
4002;DHT22;2015;48.670;9.060;2023-02-26T04:59:04;-1.90;99.90
4002;DHT22;2015;48.670;9.060;2023-02-26T05:01:36;-1.90;99.90
4002;DHT22;2015;48.670;9.060;2023-02-26T05:04:08;-1.90;99.90
4002;DHT22;2015;48.670;9.060;2023-02-26T05:06:40;-1.90;99.90
4002;DHT22;2015;48.670;9.060;2023-02-26T05:09:12;-2.00;99.90
4002;DHT22;2015;48.670;9.060;2023-02-26T05:11:44;-2.00;99.90
4002;DHT22;2015;48.670;9.060;2023-02-26T05:14:16;-2.00;99.90
4002;DHT22;2015;48.670;9.060;2023-02-26T05:16:48;-2.00;99.90
4002;DHT22;2015;48.670;9.060;2023-02-26T05:19:19;-2.00;99.90
4002;DHT22;2015;48.670;9.060;2023-02-26T05:21:51;-2.00;99.90
4002;DHT22;2015;48.670;9.060;2023-02-26T05:24:23;-2.10;99.90
4002;DHT22;2015;48.670;9.060;2023-02-26T05:26:55;-2.00;99.90
4002;DHT22;2015;48.670;9.060;2023-02-26T05:29:26;-2.00;99.90
4002;DHT22;2015;48.670;9.060;2023-02-26T05:31:58;-2.10;99.90
4002;DHT22;2015;48.670;9.060;2023-02-26T05:34:30;-2.00;99.90
4002;DHT22;2015;48.670;9.060;2023-02-26T05:37:02;-2.10;99.90
4002;DHT22;2015;48.670;9.060;2023-02-26T05:39:34;-2.10;99.90
4002;DHT22;2015;48.670;9.060;2023-02-26T05:42:06;-2.10;99.90
4002;DHT22;2015;48.670;9.060;2023-02-26T05:44:38;-2.10;99.90
4002;DHT22;2015;48.670;9.060;2023-02-26T05:47:10;-2.10;99.90
4002;DHT22;2015;48.670;9.060;2023-02-26T05:49:42;-2.10;99.90
4002;DHT22;2015;48.670;9.060;2023-02-26T05:52:14;-2.10;99.90
4002;DHT22;2015;48.670;9.060;2023-02-26T05:54:46;-2.10;99.90
4002;DHT22;2015;48.670;9.060;2023-02-26T05:57:17;-2.20;99.90
4002;DHT22;2015;48.670;9.060;2023-02-26T05:59:50;-2.20;99.90
4002;DHT22;2015;48.670;9.060;2023-02-26T06:02:22;-2.20;99.90
4002;DHT22;2015;48.670;9.060;2023-02-26T06:04:53;-2.20;99.90
4002;DHT22;2015;48.670;9.060;2023-02-26T06:07:26;-2.20;99.90
4002;DHT22;2015;48.670;9.060;2023-02-26T06:09:58;-2.20;99.90
4002;DHT22;2015;48.670;9.060;2023-02-26T06:12:29;-2.20;99.90
4002;DHT22;2015;48.670;9.060;2023-02-26T06:15:01;-2.20;99.90
4002;DHT22;2015;48.670;9.060;2023-02-26T06:17:34;-2.20;99.90
4002;DHT22;2015;48.670;9.060;2023-02-26T06:20:06;-2.20;99.90
4002;DHT22;2015;48.670;9.060;2023-02-26T06:22:38;-2.30;99.90
4002;DHT22;2015;48.670;9.060;2023-02-26T06:25:10;-2.30;99.90
4002;DHT22;2015;48.670;9.060;2023-02-26T06:27:41;-2.20;99.90
4002;DHT22;2015;48.670;9.060;2023-02-26T06:30:13;-2.30;99.90
4002;DHT22;2015;48.670;9.060;2023-02-26T06:32:45;-2.30;99.90
4002;DHT22;2015;48.670;9.060;2023-02-26T06:35:17;-2.30;99.90
4002;DHT22;2015;48.670;9.060;2023-02-26T06:37:49;-2.40;99.90
4002;DHT22;2015;48.670;9.060;2023-02-26T06:40:21;-2.40;99.90
4002;DHT22;2015;48.670;9.060;2023-02-26T06:42:52;-2.40;99.90
4002;DHT22;2015;48.670;9.060;2023-02-26T06:45:24;-2.30;99.90
4002;DHT22;2015;48.670;9.060;2023-02-26T06:47:56;-2.30;99.90
4002;DHT22;2015;48.670;9.060;2023-02-26T06:50:28;-2.30;99.90
4002;DHT22;2015;48.670;9.060;2023-02-26T06:53:00;-2.30;99.90
4002;DHT22;2015;48.670;9.060;2023-02-26T06:55:32;-2.20;99.90
4002;DHT22;2015;48.670;9.060;2023-02-26T06:58:04;-2.20;99.90
4002;DHT22;2015;48.670;9.060;2023-02-26T07:00:36;-2.20;99.90
4002;DHT22;2015;48.670;9.060;2023-02-26T07:03:13;-2.10;99.90
4002;DHT22;2015;48.670;9.060;2023-02-26T07:05:45;-2.00;99.90
4002;DHT22;2015;48.670;9.060;2023-02-26T07:08:17;-2.00;99.90
4002;DHT22;2015;48.670;9.060;2023-02-26T07:10:49;-2.00;99.90
4002;DHT22;2015;48.670;9.060;2023-02-26T07:13:21;-2.00;99.90
4002;DHT22;2015;48.670;9.060;2023-02-26T07:15:53;-2.00;99.90
4002;DHT22;2015;48.670;9.060;2023-02-26T07:18:24;-2.00;99.90
4002;DHT22;2015;48.670;9.060;2023-02-26T07:20:56;-2.00;99.90
4002;DHT22;2015;48.670;9.060;2023-02-26T07:23:28;-2.00;99.90
4002;DHT22;2015;48.670;9.060;2023-02-26T07:26:00;-1.90;99.90
4002;DHT22;2015;48.670;9.060;2023-02-26T07:28:32;-1.90;99.90
4002;DHT22;2015;48.670;9.060;2023-02-26T07:31:04;-1.80;99.90
4002;DHT22;2015;48.670;9.060;2023-02-26T07:33:36;-1.70;99.90
4002;DHT22;2015;48.670;9.060;2023-02-26T07:36:10;-1.60;99.90
4002;DHT22;2015;48.670;9.060;2023-02-26T07:38:41;-1.50;99.90
4002;DHT22;2015;48.670;9.060;2023-02-26T07:41:13;-1.50;99.90
4002;DHT22;2015;48.670;9.060;2023-02-26T07:43:45;-1.40;99.90
4002;DHT22;2015;48.670;9.060;2023-02-26T07:46:17;-1.40;99.90
4002;DHT22;2015;48.670;9.060;2023-02-26T07:48:49;-1.50;99.90
4002;DHT22;2015;48.670;9.060;2023-02-26T07:51:21;-1.40;99.90
4002;DHT22;2015;48.670;9.060;2023-02-26T07:53:53;-1.30;99.90
4002;DHT22;2015;48.670;9.060;2023-02-26T07:56:24;-1.20;99.90
4002;DHT22;2015;48.670;9.060;2023-02-26T07:58:57;-1.20;99.90
4002;DHT22;2015;48.670;9.060;2023-02-26T08:01:28;-1.20;99.90
4002;DHT22;2015;48.670;9.060;2023-02-26T08:04:01;-1.20;99.90
4002;DHT22;2015;48.670;9.060;2023-02-26T08:06:33;-1.30;99.90
4002;DHT22;2015;48.670;9.060;2023-02-26T08:09:05;-1.30;99.90
4002;DHT22;2015;48.670;9.060;2023-02-26T08:11:37;-1.20;99.90
4002;DHT22;2015;48.670;9.060;2023-02-26T08:14:11;-1.20;99.90
4002;DHT22;2015;48.670;9.060;2023-02-26T08:16:42;-1.20;99.90
4002;DHT22;2015;48.670;9.060;2023-02-26T08:19:14;-1.10;99.90
4002;DHT22;2015;48.670;9.060;2023-02-26T08:21:46;-1.00;99.90
4002;DHT22;2015;48.670;9.060;2023-02-26T08:24:19;-0.80;99.90
4002;DHT22;2015;48.670;9.060;2023-02-26T08:26:51;-0.60;99.90
4002;DHT22;2015;48.670;9.060;2023-02-26T08:29:23;-0.50;99.90
4002;DHT22;2015;48.670;9.060;2023-02-26T08:31:55;-0.60;99.90
4002;DHT22;2015;48.670;9.060;2023-02-26T08:34:27;-0.70;99.90
4002;DHT22;2015;48.670;9.060;2023-02-26T08:36:59;-1.00;99.90
4002;DHT22;2015;48.670;9.060;2023-02-26T08:39:31;-1.10;99.90
4002;DHT22;2015;48.670;9.060;2023-02-26T08:42:06;-0.90;99.90
4002;DHT22;2015;48.670;9.060;2023-02-26T08:44:38;-0.70;99.90
4002;DHT22;2015;48.670;9.060;2023-02-26T08:47:10;-0.50;99.90
4002;DHT22;2015;48.670;9.060;2023-02-26T08:49:42;-0.40;99.90
4002;DHT22;2015;48.670;9.060;2023-02-26T08:52:14;-0.20;99.90
4002;DHT22;2015;48.670;9.060;2023-02-26T08:54:46;-0.10;99.90
4002;DHT22;2015;48.670;9.060;2023-02-26T08:57:18;0.00;99.90
4002;DHT22;2015;48.670;9.060;2023-02-26T08:59:50;-0.20;99.90
4002;DHT22;2015;48.670;9.060;2023-02-26T09:02:21;-0.40;99.90
4002;DHT22;2015;48.670;9.060;2023-02-26T09:04:53;-0.40;99.90
4002;DHT22;2015;48.670;9.060;2023-02-26T09:07:25;-0.50;99.90
4002;DHT22;2015;48.670;9.060;2023-02-26T09:09:57;-0.60;99.90
4002;DHT22;2015;48.670;9.060;2023-02-26T09:12:28;-0.60;99.90
4002;DHT22;2015;48.670;9.060;2023-02-26T09:15:00;-0.50;99.90
4002;DHT22;2015;48.670;9.060;2023-02-26T09:17:32;-0.50;99.90
4002;DHT22;2015;48.670;9.060;2023-02-26T09:20:05;-0.60;99.90
4002;DHT22;2015;48.670;9.060;2023-02-26T09:22:37;-0.70;99.90
4002;DHT22;2015;48.670;9.060;2023-02-26T09:25:09;-0.70;99.90
4002;DHT22;2015;48.670;9.060;2023-02-26T09:27:41;-0.70;99.90
4002;DHT22;2015;48.670;9.060;2023-02-26T09:30:13;-0.60;99.90
4002;DHT22;2015;48.670;9.060;2023-02-26T09:32:45;-0.50;99.90
4002;DHT22;2015;48.670;9.060;2023-02-26T09:35:17;-0.60;99.90
4002;DHT22;2015;48.670;9.060;2023-02-26T09:37:49;-0.60;99.90
4002;DHT22;2015;48.670;9.060;2023-02-26T09:52:23;-0.40;99.90
4002;DHT22;2015;48.670;9.060;2023-02-26T09:55:02;-0.40;99.90
4002;DHT22;2015;48.670;9.060;2023-02-26T09:57:40;-0.50;99.90
4002;DHT22;2015;48.670;9.060;2023-02-26T10:00:23;-0.40;99.90
4002;DHT22;2015;48.670;9.060;2023-02-26T10:06:28;-0.40;99.90
4002;DHT22;2015;48.670;9.060;2023-02-26T10:17:33;-0.10;99.90
4002;DHT22;2015;48.670;9.060;2023-02-26T10:20:14;-0.20;99.90
4002;DHT22;2015;48.670;9.060;2023-02-26T10:29:01;-0.30;99.90
4002;DHT22;2015;48.670;9.060;2023-02-26T10:31:48;-0.30;99.90
4002;DHT22;2015;48.670;9.060;2023-02-26T10:34:37;-0.20;99.90
4002;DHT22;2015;48.670;9.060;2023-02-26T10:43:21;-0.10;99.90
4002;DHT22;2015;48.670;9.060;2023-02-26T10:48:56;-0.20;99.90
4002;DHT22;2015;48.670;9.060;2023-02-26T10:51:36;-0.10;99.90
4002;DHT22;2015;48.670;9.060;2023-02-26T10:54:15;-0.20;99.90
4002;DHT22;2015;48.670;9.060;2023-02-26T10:56:48;-0.10;99.90
4002;DHT22;2015;48.670;9.060;2023-02-26T10:59:20;-0.20;99.90
4002;DHT22;2015;48.670;9.060;2023-02-26T11:01:53;-0.20;99.90
4002;DHT22;2015;48.670;9.060;2023-02-26T11:04:26;-0.20;99.90
4002;DHT22;2015;48.670;9.060;2023-02-26T11:06:59;-0.30;99.90
4002;DHT22;2015;48.670;9.060;2023-02-26T11:09:44;-0.30;99.90
4002;DHT22;2015;48.670;9.060;2023-02-26T11:12:16;-0.30;99.90
4002;DHT22;2015;48.670;9.060;2023-02-26T11:14:51;-0.10;99.90
4002;DHT22;2015;48.670;9.060;2023-02-26T11:17:27;0.20;99.90
4002;DHT22;2015;48.670;9.060;2023-02-26T11:20:04;0.40;99.90
4002;DHT22;2015;48.670;9.060;2023-02-26T11:22:51;0.50;99.90
4002;DHT22;2015;48.670;9.060;2023-02-26T11:25:25;0.70;99.90
4002;DHT22;2015;48.670;9.060;2023-02-26T11:28:09;0.80;99.90
4002;DHT22;2015;48.670;9.060;2023-02-26T11:30:48;0.70;99.90
4002;DHT22;2015;48.670;9.060;2023-02-26T11:33:36;0.50;99.90
4002;DHT22;2015;48.670;9.060;2023-02-26T11:36:12;0.50;99.90
4002;DHT22;2015;48.670;9.060;2023-02-26T11:38:51;0.60;99.90
4002;DHT22;2015;48.670;9.060;2023-02-26T11:41:24;0.70;99.90
4002;DHT22;2015;48.670;9.060;2023-02-26T11:47:06;0.70;99.90
4002;DHT22;2015;48.670;9.060;2023-02-26T11:49:44;0.50;99.90
4002;DHT22;2015;48.670;9.060;2023-02-26T11:52:20;0.50;99.90
4002;DHT22;2015;48.670;9.060;2023-02-26T11:54:58;0.60;99.90
4002;DHT22;2015;48.670;9.060;2023-02-26T11:57:32;0.60;99.90
4002;DHT22;2015;48.670;9.060;2023-02-26T12:00:18;0.50;99.90
4002;DHT22;2015;48.670;9.060;2023-02-26T12:02:50;0.50;99.90
4002;DHT22;2015;48.670;9.060;2023-02-26T12:05:27;0.50;99.90
4002;DHT22;2015;48.670;9.060;2023-02-26T12:08:00;0.60;99.90
4002;DHT22;2015;48.670;9.060;2023-02-26T12:22:01;0.50;99.90
4002;DHT22;2015;48.670;9.060;2023-02-26T12:30:40;0.40;99.90
4002;DHT22;2015;48.670;9.060;2023-02-26T12:33:44;0.30;99.90
4002;DHT22;2015;48.670;9.060;2023-02-26T12:36:31;0.20;99.90
4002;DHT22;2015;48.670;9.060;2023-02-26T12:50:57;0.40;99.90
4002;DHT22;2015;48.670;9.060;2023-02-26T13:00:02;0.30;99.90
4002;DHT22;2015;48.670;9.060;2023-02-26T13:16:54;0.60;99.90
4002;DHT22;2015;48.670;9.060;2023-02-26T13:19:44;0.70;99.90
4002;DHT22;2015;48.670;9.060;2023-02-26T13:22:38;0.70;99.90
4002;DHT22;2015;48.670;9.060;2023-02-26T13:28:38;0.80;99.90
4002;DHT22;2015;48.670;9.060;2023-02-26T13:31:25;0.80;99.90
4002;DHT22;2015;48.670;9.060;2023-02-26T13:34:03;0.90;99.90
4002;DHT22;2015;48.670;9.060;2023-02-26T13:36:37;0.80;99.90
4002;DHT22;2015;48.670;9.060;2023-02-26T13:47:30;0.60;99.90
4002;DHT22;2015;48.670;9.060;2023-02-26T13:50:38;0.60;99.90
4002;DHT22;2015;48.670;9.060;2023-02-26T13:56:07;0.60;99.90
4002;DHT22;2015;48.670;9.060;2023-02-26T13:58:52;0.70;99.90
4002;DHT22;2015;48.670;9.060;2023-02-26T14:01:32;0.80;99.90
4002;DHT22;2015;48.670;9.060;2023-02-26T14:06:59;1.00;99.90
4002;DHT22;2015;48.670;9.060;2023-02-26T14:10:02;1.10;99.90
4002;DHT22;2015;48.670;9.060;2023-02-26T14:12:37;1.10;99.90
4002;DHT22;2015;48.670;9.060;2023-02-26T14:17:49;1.30;99.90
4002;DHT22;2015;48.670;9.060;2023-02-26T14:20:22;1.30;99.90
4002;DHT22;2015;48.670;9.060;2023-02-26T14:23:31;1.20;99.90
4002;DHT22;2015;48.670;9.060;2023-02-26T14:26:11;1.30;99.90
4002;DHT22;2015;48.670;9.060;2023-02-26T14:28:57;1.40;99.90
4002;DHT22;2015;48.670;9.060;2023-02-26T14:34:28;1.40;99.90
4002;DHT22;2015;48.670;9.060;2023-02-26T14:37:04;1.40;99.90
4002;DHT22;2015;48.670;9.060;2023-02-26T14:42:45;1.30;99.90
4002;DHT22;2015;48.670;9.060;2023-02-26T14:45:36;1.50;99.90
4002;DHT22;2015;48.670;9.060;2023-02-26T14:48:14;1.50;99.90
4002;DHT22;2015;48.670;9.060;2023-02-26T14:51:13;1.50;99.90
4002;DHT22;2015;48.670;9.060;2023-02-26T15:21:57;1.30;99.90
4002;DHT22;2015;48.670;9.060;2023-02-26T15:24:31;1.20;99.90
4002;DHT22;2015;48.670;9.060;2023-02-26T15:27:04;1.30;99.90
4002;DHT22;2015;48.670;9.060;2023-02-26T15:29:40;1.30;99.90
4002;DHT22;2015;48.670;9.060;2023-02-26T15:32:24;1.30;99.90
4002;DHT22;2015;48.670;9.060;2023-02-26T15:37:51;1.30;99.90
4002;DHT22;2015;48.670;9.060;2023-02-26T15:40:29;1.20;99.90
4002;DHT22;2015;48.670;9.060;2023-02-26T15:43:04;1.20;99.90
4002;DHT22;2015;48.670;9.060;2023-02-26T15:45:40;1.20;99.90
4002;DHT22;2015;48.670;9.060;2023-02-26T15:48:28;1.10;99.90
4002;DHT22;2015;48.670;9.060;2023-02-26T15:51:03;1.00;99.90
4002;DHT22;2015;48.670;9.060;2023-02-26T15:53:40;0.90;99.90
4002;DHT22;2015;48.670;9.060;2023-02-26T15:56:17;0.90;99.90
4002;DHT22;2015;48.670;9.060;2023-02-26T15:58:55;0.90;99.90
4002;DHT22;2015;48.670;9.060;2023-02-26T16:01:29;0.90;99.90
4002;DHT22;2015;48.670;9.060;2023-02-26T16:04:04;0.90;99.90
4002;DHT22;2015;48.670;9.060;2023-02-26T16:06:43;0.90;99.90
4002;DHT22;2015;48.670;9.060;2023-02-26T16:09:26;1.00;99.90
4002;DHT22;2015;48.670;9.060;2023-02-26T16:12:44;1.00;99.90
4002;DHT22;2015;48.670;9.060;2023-02-26T16:14:59;0.90;99.90
4002;DHT22;2015;48.670;9.060;2023-02-26T16:17:36;0.90;99.90
4002;DHT22;2015;48.670;9.060;2023-02-26T16:20:19;1.00;99.90
4002;DHT22;2015;48.670;9.060;2023-02-26T16:23:04;1.00;99.90
4002;DHT22;2015;48.670;9.060;2023-02-26T16:25:48;1.00;99.90
4002;DHT22;2015;48.670;9.060;2023-02-26T16:28:25;1.00;99.90
4002;DHT22;2015;48.670;9.060;2023-02-26T16:31:00;1.00;99.90
4002;DHT22;2015;48.670;9.060;2023-02-26T16:33:34;1.00;99.90
4002;DHT22;2015;48.670;9.060;2023-02-26T16:36:14;0.90;99.90
4002;DHT22;2015;48.670;9.060;2023-02-26T16:38:51;0.90;99.90
4002;DHT22;2015;48.670;9.060;2023-02-26T16:41:30;0.80;99.90
4002;DHT22;2015;48.670;9.060;2023-02-26T16:44:09;0.80;99.90
4002;DHT22;2015;48.670;9.060;2023-02-26T16:46:54;0.70;99.90
4002;DHT22;2015;48.670;9.060;2023-02-26T16:49:33;0.70;99.90
4002;DHT22;2015;48.670;9.060;2023-02-26T16:52:06;0.70;99.90
4002;DHT22;2015;48.670;9.060;2023-02-26T16:54:40;0.60;99.90
4002;DHT22;2015;48.670;9.060;2023-02-26T16:57:17;0.60;99.90
4002;DHT22;2015;48.670;9.060;2023-02-26T16:59:53;0.60;99.90
4002;DHT22;2015;48.670;9.060;2023-02-26T17:02:32;0.80;99.90
4002;DHT22;2015;48.670;9.060;2023-02-26T17:05:26;0.70;99.90
4002;DHT22;2015;48.670;9.060;2023-02-26T17:08:07;0.70;99.90
4002;DHT22;2015;48.670;9.060;2023-02-26T17:10:50;0.60;99.90
4002;DHT22;2015;48.670;9.060;2023-02-26T17:13:27;0.60;99.90
4002;DHT22;2015;48.670;9.060;2023-02-26T17:16:05;0.50;99.90
4002;DHT22;2015;48.670;9.060;2023-02-26T17:18:38;0.50;99.90
4002;DHT22;2015;48.670;9.060;2023-02-26T17:21:10;0.50;99.90
4002;DHT22;2015;48.670;9.060;2023-02-26T17:23:42;0.50;99.90
4002;DHT22;2015;48.670;9.060;2023-02-26T17:26:14;0.50;99.90
4002;DHT22;2015;48.670;9.060;2023-02-26T17:28:46;0.50;99.90
4002;DHT22;2015;48.670;9.060;2023-02-26T17:31:17;0.40;99.90
4002;DHT22;2015;48.670;9.060;2023-02-26T17:33:49;0.30;99.90
4002;DHT22;2015;48.670;9.060;2023-02-26T17:36:22;0.30;99.90
4002;DHT22;2015;48.670;9.060;2023-02-26T17:38:56;0.30;99.90
4002;DHT22;2015;48.670;9.060;2023-02-26T17:41:28;0.30;99.90
4002;DHT22;2015;48.670;9.060;2023-02-26T17:44:01;0.30;99.90
4002;DHT22;2015;48.670;9.060;2023-02-26T17:46:32;0.20;99.90
4002;DHT22;2015;48.670;9.060;2023-02-26T17:49:04;0.20;99.90
4002;DHT22;2015;48.670;9.060;2023-02-26T17:51:36;0.20;99.90
4002;DHT22;2015;48.670;9.060;2023-02-26T17:54:08;0.20;99.90
4002;DHT22;2015;48.670;9.060;2023-02-26T17:56:40;0.20;99.90
4002;DHT22;2015;48.670;9.060;2023-02-26T17:59:14;0.20;99.90
4002;DHT22;2015;48.670;9.060;2023-02-26T18:01:46;0.20;99.90
4002;DHT22;2015;48.670;9.060;2023-02-26T18:04:18;0.20;99.90
4002;DHT22;2015;48.670;9.060;2023-02-26T18:06:50;0.10;99.90
4002;DHT22;2015;48.670;9.060;2023-02-26T18:09:21;0.10;99.90
4002;DHT22;2015;48.670;9.060;2023-02-26T18:11:53;0.10;99.90
4002;DHT22;2015;48.670;9.060;2023-02-26T18:14:25;0.10;99.90
4002;DHT22;2015;48.670;9.060;2023-02-26T18:16:57;0.00;99.90
4002;DHT22;2015;48.670;9.060;2023-02-26T18:19:29;-0.10;99.90
4002;DHT22;2015;48.670;9.060;2023-02-26T18:22:00;-0.20;99.90
4002;DHT22;2015;48.670;9.060;2023-02-26T18:24:32;-0.20;99.90
4002;DHT22;2015;48.670;9.060;2023-02-26T18:27:04;-0.20;99.90
4002;DHT22;2015;48.670;9.060;2023-02-26T18:29:35;-0.20;99.90
4002;DHT22;2015;48.670;9.060;2023-02-26T18:32:12;-0.30;99.90
4002;DHT22;2015;48.670;9.060;2023-02-26T18:34:44;-0.30;99.90
4002;DHT22;2015;48.670;9.060;2023-02-26T18:37:19;-0.30;99.90
4002;DHT22;2015;48.670;9.060;2023-02-26T18:39:51;-0.30;99.90
4002;DHT22;2015;48.670;9.060;2023-02-26T18:42:26;-0.40;99.90
4002;DHT22;2015;48.670;9.060;2023-02-26T18:44:58;-0.40;99.90
4002;DHT22;2015;48.670;9.060;2023-02-26T18:47:30;-0.40;99.90
4002;DHT22;2015;48.670;9.060;2023-02-26T18:50:02;-0.40;99.90
4002;DHT22;2015;48.670;9.060;2023-02-26T18:52:34;-0.40;99.90
4002;DHT22;2015;48.670;9.060;2023-02-26T18:55:06;-0.40;99.90
4002;DHT22;2015;48.670;9.060;2023-02-26T18:57:39;-0.30;99.90
4002;DHT22;2015;48.670;9.060;2023-02-26T19:00:13;-0.30;99.90
4002;DHT22;2015;48.670;9.060;2023-02-26T19:02:45;-0.30;99.90
4002;DHT22;2015;48.670;9.060;2023-02-26T19:05:17;-0.30;99.90
4002;DHT22;2015;48.670;9.060;2023-02-26T19:07:53;-0.30;99.90
4002;DHT22;2015;48.670;9.060;2023-02-26T19:10:26;-0.30;99.90
4002;DHT22;2015;48.670;9.060;2023-02-26T19:13:01;-0.30;99.90
4002;DHT22;2015;48.670;9.060;2023-02-26T19:15:33;-0.40;99.90
4002;DHT22;2015;48.670;9.060;2023-02-26T19:18:05;-0.40;99.90
4002;DHT22;2015;48.670;9.060;2023-02-26T19:20:36;-0.40;99.90
4002;DHT22;2015;48.670;9.060;2023-02-26T19:23:08;-0.40;99.90
4002;DHT22;2015;48.670;9.060;2023-02-26T19:25:40;-0.40;99.90
4002;DHT22;2015;48.670;9.060;2023-02-26T19:28:13;-0.40;99.90
4002;DHT22;2015;48.670;9.060;2023-02-26T19:30:45;-0.40;99.90
4002;DHT22;2015;48.670;9.060;2023-02-26T19:33:17;-0.50;99.90
4002;DHT22;2015;48.670;9.060;2023-02-26T19:35:51;-0.50;99.90
4002;DHT22;2015;48.670;9.060;2023-02-26T19:38:23;-0.50;99.90
4002;DHT22;2015;48.670;9.060;2023-02-26T19:40:55;-0.50;99.90
4002;DHT22;2015;48.670;9.060;2023-02-26T19:43:27;-0.50;99.90
4002;DHT22;2015;48.670;9.060;2023-02-26T19:45:58;-0.50;99.90
4002;DHT22;2015;48.670;9.060;2023-02-26T19:48:30;-0.50;99.90
4002;DHT22;2015;48.670;9.060;2023-02-26T19:51:02;-0.50;99.90
4002;DHT22;2015;48.670;9.060;2023-02-26T19:53:34;-0.60;99.90
4002;DHT22;2015;48.670;9.060;2023-02-26T19:56:07;-0.60;99.90
4002;DHT22;2015;48.670;9.060;2023-02-26T19:58:39;-0.60;99.90
4002;DHT22;2015;48.670;9.060;2023-02-26T20:01:11;-0.60;99.90
4002;DHT22;2015;48.670;9.060;2023-02-26T20:03:42;-0.60;99.90
4002;DHT22;2015;48.670;9.060;2023-02-26T20:06:14;-0.60;99.90
4002;DHT22;2015;48.670;9.060;2023-02-26T20:08:46;-0.50;99.90
4002;DHT22;2015;48.670;9.060;2023-02-26T20:11:18;-0.60;99.90
4002;DHT22;2015;48.670;9.060;2023-02-26T20:13:50;-0.50;99.90
4002;DHT22;2015;48.670;9.060;2023-02-26T20:16:22;-0.50;99.90
4002;DHT22;2015;48.670;9.060;2023-02-26T20:18:54;-0.50;99.90
4002;DHT22;2015;48.670;9.060;2023-02-26T20:21:26;-0.60;99.90
4002;DHT22;2015;48.670;9.060;2023-02-26T20:23:58;-0.60;99.90
4002;DHT22;2015;48.670;9.060;2023-02-26T20:26:30;-0.60;99.90